createdAt,value
2023-04-01T00:00:09.381Z,8.33
2023-04-01T00:02:38.053Z,10.23
2023-04-01T00:05:11.519Z,14.33
2023-04-01T00:07:43.857Z,10.37
2023-04-01T00:10:15.492Z,10.47
2023-04-01T00:12:44.529Z,10.17
2023-04-01T00:15:14.506Z,12.70
2023-04-01T00:17:43.013Z,11.70
2023-04-01T00:20:15.316Z,12.67
2023-04-01T00:22:43.896Z,10.43
2023-04-01T00:25:12.649Z,13.53
2023-04-01T00:27:41.241Z,10.57
2023-04-01T00:30:13.959Z,10.37
2023-04-01T00:32:42.536Z,15.97
2023-04-01T00:35:13.549Z,14.67
2023-04-01T00:37:42.024Z,16.07
2023-04-01T00:40:25.150Z,15.40
2023-04-01T00:42:53.654Z,8.27
2023-04-01T00:45:42.026Z,7.30
2023-04-01T00:48:16.934Z,11.93
2023-04-01T00:50:52.880Z,8.87
2023-04-01T00:53:23.535Z,11.13
2023-04-01T00:56:04.972Z,9.03
2023-04-01T00:58:40.572Z,7.17
2023-04-01T01:01:11.103Z,8.53
2023-04-01T01:03:39.739Z,7.67
2023-04-01T01:06:31.122Z,5.53
2023-04-01T01:09:21.894Z,7.63
2023-04-01T01:11:59.951Z,7.00
2023-04-01T01:14:43.695Z,5.57
2023-04-01T01:17:22.984Z,9.03
2023-04-01T01:20:33.045Z,3.90
2023-04-01T01:23:57.412Z,5.37
2023-04-01T01:26:56.486Z,5.03
2023-04-01T01:29:53.824Z,6.00
2023-04-01T01:32:51.292Z,5.20
2023-04-01T01:35:27.982Z,6.23
2023-04-01T01:38:02.082Z,6.77
2023-04-01T01:40:34.310Z,6.93
2023-04-01T01:43:12.243Z,5.27
2023-04-01T01:45:49.658Z,4.37
2023-04-01T01:48:20.903Z,3.97
2023-04-01T01:50:52.479Z,5.27
2023-04-01T01:53:21.003Z,4.57
2023-04-01T01:55:50.300Z,4.70
2023-04-01T01:58:29.459Z,7.50
2023-04-01T02:01:02.122Z,5.80
2023-04-01T02:03:36.721Z,13.13
2023-04-01T02:06:11.765Z,11.00
2023-04-01T02:08:45.950Z,11.33
2023-04-01T02:11:45.186Z,13.27
2023-04-01T02:14:23.962Z,13.07
2023-04-01T02:16:57.644Z,17.17
2023-04-01T02:19:36.420Z,16.13
2023-04-01T02:22:12.691Z,13.80
2023-04-01T02:24:44.217Z,7.70
2023-04-01T02:27:13.535Z,13.13
2023-04-01T02:29:42.203Z,7.53
2023-04-01T02:32:12.421Z,9.73
2023-04-01T02:34:41.647Z,6.80
2023-04-01T02:37:13.049Z,12.43
2023-04-01T02:39:43.720Z,12.53
2023-04-01T02:42:12.619Z,8.97
2023-04-01T02:44:41.145Z,13.33
2023-04-01T02:47:11.298Z,8.97
2023-04-01T02:49:39.791Z,13.27
2023-04-01T02:52:08.320Z,10.93
2023-04-01T02:54:38.268Z,12.33
2023-04-01T02:57:06.879Z,12.03
2023-04-01T02:59:35.705Z,10.83
2023-04-01T03:02:04.200Z,9.90
2023-04-01T03:04:32.637Z,6.33
2023-04-01T03:07:01.128Z,15.33
2023-04-01T03:09:30.585Z,8.47
2023-04-01T03:12:00.389Z,4.17
2023-04-01T03:15:19.216Z,7.50
2023-04-01T03:17:50.841Z,3.97
2023-04-01T03:20:20.395Z,6.37
2023-04-01T03:22:49.008Z,5.17
2023-04-01T03:25:18.673Z,5.57
2023-04-01T03:27:48.419Z,4.13
2023-04-01T03:30:17.032Z,4.50
2023-04-01T03:32:45.638Z,7.20
2023-04-01T03:35:14.189Z,4.93
2023-04-01T03:37:42.876Z,6.13
2023-04-01T03:40:12.943Z,5.47
2023-04-01T03:42:41.503Z,4.67
2023-04-01T03:45:13.005Z,3.80
2023-04-01T03:47:41.875Z,6.77
2023-04-01T03:50:11.643Z,3.67
2023-04-01T03:52:41.058Z,10.00
2023-04-01T03:55:10.194Z,5.70
2023-04-01T03:57:38.766Z,8.53
2023-04-01T04:00:10.771Z,9.50
2023-04-01T04:02:39.279Z,21.67
2023-04-01T04:05:09.039Z,16.07
2023-04-01T04:07:37.809Z,17.93
2023-04-01T04:10:07.895Z,13.10
2023-04-01T04:12:36.432Z,15.10
2023-04-01T04:15:05.588Z,14.77
2023-04-01T04:17:35.474Z,15.60
2023-04-01T04:20:04.853Z,12.80
2023-04-01T04:22:58.738Z,10.93
2023-04-01T04:25:33.234Z,12.47
2023-04-01T04:28:01.903Z,12.67
2023-04-01T04:30:30.407Z,14.30
2023-04-01T04:33:00.278Z,16.97
2023-04-01T04:35:28.995Z,17.43
2023-04-01T04:37:57.440Z,14.03
2023-04-01T04:40:25.920Z,14.80
2023-04-01T04:42:54.507Z,14.00
2023-04-01T04:45:23.050Z,17.33
2023-04-01T04:47:51.841Z,14.63
2023-04-01T04:50:21.766Z,13.50
2023-04-01T04:53:16.292Z,12.50
2023-04-01T04:55:49.210Z,13.93
2023-04-01T04:58:18.969Z,14.23
2023-04-01T05:00:48.480Z,11.90
2023-04-01T05:03:41.686Z,13.03
2023-04-01T05:06:15.275Z,16.53
2023-04-01T05:08:44.543Z,13.33
2023-04-01T05:11:17.207Z,12.67
2023-04-01T05:13:54.196Z,11.43
2023-04-01T05:16:23.388Z,14.93
2023-04-01T05:18:51.925Z,13.80
2023-04-01T05:21:21.741Z,10.77
2023-04-01T05:23:50.267Z,11.13
2023-04-01T05:26:18.670Z,11.83
2023-04-01T05:28:47.134Z,11.13
2023-04-01T05:31:15.733Z,11.47
2023-04-01T05:33:44.195Z,11.77
2023-04-01T05:36:16.102Z,13.37
2023-04-01T05:38:46.924Z,14.60
2023-04-01T05:41:16.286Z,13.23
2023-04-01T05:43:45.283Z,13.83
2023-04-01T05:46:13.838Z,10.67
2023-04-01T05:48:42.337Z,11.20
2023-04-01T05:51:15.906Z,10.17
2023-04-01T05:53:46.320Z,12.47
2023-04-01T05:56:15.068Z,10.97
2023-04-01T05:58:43.740Z,10.97
2023-04-01T06:01:16.207Z,8.30
2023-04-01T06:04:15.529Z,12.77
2023-04-01T06:06:44.636Z,7.67
2023-04-01T06:09:54.282Z,9.20
2023-04-01T06:12:43.193Z,10.97
2023-04-01T06:15:28.408Z,8.27
2023-04-01T06:18:41.981Z,7.00
2023-04-01T06:21:35.363Z,7.97
2023-04-01T06:24:26.885Z,13.43
2023-04-01T06:27:09.789Z,11.73
2023-04-01T06:29:55.200Z,13.63
2023-04-01T06:33:15.874Z,11.73
2023-04-01T06:36:17.129Z,10.80
2023-04-01T06:39:12.929Z,8.37
2023-04-01T06:42:35.133Z,10.83
2023-04-01T06:45:21.229Z,9.17
2023-04-01T06:48:12.993Z,8.73
2023-04-01T06:50:57.383Z,11.43
2023-04-01T06:53:37.867Z,7.80
2023-04-01T06:56:13.192Z,18.23
2023-04-01T06:58:51.553Z,17.57
2023-04-01T07:01:28.491Z,17.10
2023-04-01T07:04:03.082Z,13.60
2023-04-01T07:06:38.460Z,16.03
2023-04-01T07:09:14.185Z,11.87
2023-04-01T07:12:17.516Z,13.27
2023-04-01T07:14:50.987Z,32.90
2023-04-01T07:17:24.177Z,11.73
2023-04-01T07:20:00.656Z,14.37
2023-04-01T07:22:34.264Z,11.40
2023-04-01T07:25:13.193Z,15.27
2023-04-01T07:27:41.903Z,12.27
2023-04-01T07:30:18.671Z,10.00
2023-04-01T07:32:53.843Z,9.57
2023-04-01T07:35:32.756Z,13.50
2023-04-01T07:38:30.369Z,10.40
2023-04-01T07:41:12.615Z,9.97
2023-04-01T07:44:23.730Z,10.90
2023-04-01T07:47:08.323Z,7.70
2023-04-01T07:49:55.085Z,9.63
2023-04-01T07:52:38.080Z,15.43
2023-04-01T07:55:16.482Z,10.20
2023-04-01T07:57:58.200Z,7.67
2023-04-01T08:00:44.801Z,10.70
2023-04-01T08:03:33.803Z,27.00
2023-04-01T08:06:16.484Z,20.30
2023-04-01T08:09:12.899Z,14.00
2023-04-01T08:12:05.701Z,18.07
2023-04-01T08:14:49.703Z,12.03
2023-04-01T08:17:28.818Z,7.33
2023-04-01T08:20:18.564Z,10.67
2023-04-01T08:22:53.301Z,10.17
2023-04-01T08:25:27.189Z,12.73
2023-04-01T08:28:04.221Z,5.43
2023-04-01T08:30:45.020Z,8.10
2023-04-01T08:33:40.302Z,6.57
2023-04-01T08:36:15.047Z,10.20
2023-04-01T08:38:46.992Z,7.97
2023-04-01T08:41:50.287Z,6.93
2023-04-01T08:45:08.822Z,7.00
2023-04-01T08:47:54.928Z,9.27
2023-04-01T08:50:45.783Z,8.73
2023-04-01T08:53:27.142Z,5.97
2023-04-01T08:56:14.523Z,7.30
2023-04-01T08:59:11.162Z,7.77
2023-04-01T09:02:06.333Z,10.40
2023-04-01T09:05:03.244Z,7.20
2023-04-01T09:08:02.861Z,6.20
2023-04-01T09:11:15.358Z,9.63
2023-04-01T09:14:25.471Z,12.37
2023-04-01T09:17:43.432Z,7.30
2023-04-01T09:20:57.658Z,14.37
2023-04-01T09:24:42.174Z,10.10
2023-04-01T09:27:28.501Z,7.97
2023-04-01T09:30:48.605Z,7.60
2023-04-01T09:34:12.361Z,8.80
2023-04-01T09:36:48.050Z,7.87
2023-04-01T09:39:38.329Z,8.53
2023-04-01T09:43:04.559Z,8.47
2023-04-01T09:45:50.440Z,10.50
2023-04-01T09:48:41.042Z,10.33
2023-04-01T09:51:36.956Z,7.43
2023-04-01T09:54:22.947Z,11.97
2023-04-01T09:57:42.142Z,9.83
2023-04-01T10:00:57.758Z,5.67
2023-04-01T10:04:27.409Z,8.47
2023-04-01T10:07:53.923Z,6.37
2023-04-01T10:11:32.614Z,4.03
2023-04-01T10:14:39.029Z,8.77
2023-04-01T10:17:40.681Z,3.97
2023-04-01T10:20:48.179Z,5.23
2023-04-01T10:23:34.639Z,7.77
2023-04-01T10:27:09.329Z,11.03
2023-04-01T10:30:28.412Z,8.47
2023-04-01T10:33:56.286Z,8.97
2023-04-01T10:36:56.995Z,9.13
2023-04-01T10:40:33.884Z,6.93
2023-04-01T10:43:44.598Z,7.10
2023-04-01T10:47:03.881Z,8.13
2023-04-01T10:50:00.777Z,5.63
2023-04-01T10:53:13.520Z,6.13
2023-04-01T10:56:36.372Z,3.73
2023-04-01T11:00:14.056Z,5.13
2023-04-01T11:03:41.675Z,4.53
2023-04-01T11:07:13.043Z,4.77
2023-04-01T11:10:45.748Z,6.30
2023-04-01T11:13:52.389Z,5.97
2023-04-01T11:17:08.097Z,9.07
2023-04-01T11:20:26.644Z,8.93
2023-04-01T11:23:20.664Z,7.90
2023-04-01T11:26:27.244Z,5.23
2023-04-01T11:29:44.374Z,6.07
2023-04-01T11:32:37.428Z,5.80
2023-04-01T11:35:47.736Z,7.97
2023-04-01T11:38:48.086Z,9.33
2023-04-01T11:41:32.740Z,5.77
2023-04-01T11:44:20.086Z,5.23
2023-04-01T11:47:21.601Z,8.13
2023-04-01T11:50:14.537Z,5.30
2023-04-01T11:53:28.937Z,3.73
2023-04-01T11:56:14.171Z,6.17
2023-04-01T11:59:45.260Z,6.50
2023-04-01T12:02:26.298Z,4.37
2023-04-01T12:05:24.325Z,3.60
2023-04-01T12:08:13.037Z,6.33
2023-04-01T12:10:55.871Z,6.40
2023-04-01T12:13:45.443Z,6.87
2023-04-01T12:16:50.878Z,8.43
2023-04-01T12:19:31.707Z,4.83
2023-04-01T12:22:28.516Z,3.83
2023-04-01T12:25:16.585Z,4.30
2023-04-01T12:28:01.767Z,5.07
2023-04-01T12:30:59.114Z,7.57
2023-04-01T12:34:03.058Z,5.07
2023-04-01T12:37:01.761Z,7.57
2023-04-01T12:39:53.393Z,9.93
2023-04-01T12:42:46.622Z,6.43
2023-04-01T12:45:49.594Z,14.67
2023-04-01T12:48:50.352Z,45.70
2023-04-01T12:52:09.481Z,26.03
2023-04-01T12:55:37.321Z,6.00
2023-04-01T12:59:01.110Z,5.23
2023-04-01T13:01:54.415Z,5.40
2023-04-01T13:05:03.578Z,8.47
2023-04-01T13:08:18.190Z,13.63
2023-04-01T13:11:10.816Z,8.60
2023-04-01T13:14:29.156Z,8.53
2023-04-01T13:17:24.058Z,9.50
2023-04-01T13:20:05.789Z,7.33
2023-04-01T13:22:53.964Z,7.63
2023-04-01T13:25:36.374Z,11.70
2023-04-01T13:28:17.270Z,7.57
2023-04-01T13:30:59.756Z,3.33
2023-04-01T13:34:07.791Z,2.27
2023-04-01T13:36:53.312Z,2.40
2023-04-01T13:39:36.403Z,3.00
2023-04-01T13:42:26.418Z,1.93
2023-04-01T13:45:04.672Z,2.77
2023-04-01T13:48:09.942Z,3.50
2023-04-01T13:51:19.846Z,2.77
2023-04-01T13:54:19.369Z,2.37
2023-04-01T13:57:07.439Z,3.13
2023-04-01T14:00:09.863Z,2.60
2023-04-01T14:02:59.212Z,1.73
2023-04-01T14:06:02.460Z,3.33
2023-04-01T14:08:51.105Z,2.87
2023-04-01T14:11:29.566Z,4.67
2023-04-01T14:14:12.228Z,2.77
2023-04-01T14:17:08.960Z,2.20
2023-04-01T14:20:04.450Z,5.33
2023-04-01T14:23:19.792Z,4.57
2023-04-01T14:26:35.274Z,7.00
2023-04-01T14:29:24.208Z,3.63
2023-04-01T14:32:08.808Z,3.67
2023-04-01T14:34:56.921Z,1.73
2023-04-01T14:38:08.652Z,2.87
2023-04-01T14:40:57.087Z,3.60
2023-04-01T14:44:00.942Z,3.10
2023-04-01T14:47:14.036Z,3.83
2023-04-01T14:49:48.259Z,2.10
2023-04-01T14:52:27.198Z,3.77
2023-04-01T14:54:59.721Z,3.23
2023-04-01T14:57:32.046Z,3.03
2023-04-01T15:00:11.932Z,1.40
2023-04-01T15:03:00.952Z,2.43
2023-04-01T15:05:41.176Z,2.17
2023-04-01T15:08:20.264Z,3.20
2023-04-01T15:11:17.597Z,3.83
2023-04-01T15:14:27.625Z,1.87
2023-04-01T15:17:24.926Z,3.07
2023-04-01T15:20:34.945Z,8.60
2023-04-01T15:23:21.857Z,7.40
2023-04-01T15:26:24.672Z,5.77
2023-04-01T15:29:10.520Z,5.33
2023-04-01T15:32:02.133Z,4.17
2023-04-01T15:34:42.563Z,5.67
2023-04-01T15:37:25.085Z,2.07
2023-04-01T16:08:14.633Z,2.73
2023-04-01T16:11:10.968Z,2.63
2023-04-01T16:13:56.672Z,2.97
2023-04-01T16:16:49.326Z,3.00
2023-04-01T16:19:49.961Z,3.50
2023-04-01T16:23:01.208Z,3.37
2023-04-01T16:25:39.517Z,3.00
2023-04-01T16:28:26.726Z,3.73
2023-04-01T16:31:05.704Z,2.70
2023-04-01T16:33:49.924Z,2.87
2023-04-01T16:36:30.538Z,2.80
2023-04-01T16:39:37.345Z,3.07
2023-04-01T16:42:45.489Z,2.50
2023-04-01T16:45:34.969Z,2.33
2023-04-01T16:48:14.492Z,2.53
2023-04-01T16:50:54.479Z,3.10
2023-04-01T16:53:42.619Z,3.40
2023-04-01T16:56:22.594Z,1.80
2023-04-01T16:59:10.956Z,2.30
2023-04-01T17:01:50.092Z,2.60
2023-04-01T17:04:34.218Z,2.50
2023-04-01T17:07:20.308Z,2.30
2023-04-01T17:10:08.103Z,2.33
2023-04-01T17:12:50.022Z,2.33
2023-04-01T17:15:31.910Z,2.40
2023-04-01T17:18:11.281Z,2.90
2023-04-01T17:20:50.724Z,3.37
2023-04-01T17:23:32.111Z,2.90
2023-04-01T17:26:22.883Z,2.83
2023-04-01T17:29:00.598Z,2.80
2023-04-01T17:32:03.857Z,2.70
2023-04-01T17:35:05.525Z,3.07
2023-04-01T17:37:52.469Z,3.80
2023-04-01T17:40:53.665Z,3.70
2023-04-01T17:43:38.840Z,5.37
2023-04-01T17:46:33.635Z,6.07
2023-04-01T17:49:21.306Z,5.73
2023-04-01T17:52:02.678Z,8.97
2023-04-01T17:54:41.177Z,8.83
2023-04-01T17:57:34.632Z,5.20
2023-04-01T18:00:22.325Z,2.77
2023-04-01T18:04:12.840Z,2.90
2023-04-01T18:07:57.155Z,3.53
2023-04-01T18:10:33.523Z,3.67
2023-04-01T18:13:54.567Z,3.10
2023-04-01T18:16:53.952Z,2.63
2023-04-01T18:19:41.866Z,2.30
2023-04-01T18:22:23.132Z,2.60
2023-04-01T18:25:06.930Z,5.83
2023-04-01T18:27:42.649Z,2.40
2023-04-01T18:30:21.382Z,2.67
2023-04-01T18:32:59.276Z,3.50
2023-04-01T18:35:50.410Z,3.43
2023-04-01T18:38:27.730Z,2.60
2023-04-01T18:41:16.433Z,3.20
2023-04-01T18:44:04.084Z,2.77
2023-04-01T18:46:41.807Z,3.10
2023-04-01T18:49:23.379Z,3.50
2023-04-01T18:51:58.937Z,2.60
2023-04-01T18:54:33.857Z,2.53
2023-04-01T18:57:10.185Z,2.37
2023-04-01T18:59:44.604Z,2.13
2023-04-01T19:02:33.397Z,2.07
2023-04-01T19:05:14.713Z,2.63
2023-04-01T19:07:50.492Z,2.57
2023-04-01T19:10:29.653Z,2.27
2023-04-01T19:13:19.030Z,2.63
2023-04-01T19:16:01.276Z,3.10
2023-04-01T19:18:53.747Z,2.77
2023-04-01T19:21:29.907Z,2.30
2023-04-01T19:24:28.808Z,2.50
2023-04-01T19:27:09.215Z,2.93
2023-04-01T19:29:58.647Z,2.37
2023-04-01T19:32:43.621Z,2.40
2023-04-01T19:35:26.419Z,3.03
2023-04-01T19:38:04.156Z,3.87
2023-04-01T19:40:49.850Z,2.50
2023-04-01T19:43:41.554Z,4.87
2023-04-01T19:46:22.038Z,2.80
2023-04-01T19:49:17.318Z,3.17
2023-04-01T19:51:54.962Z,3.30
2023-04-01T19:54:37.833Z,3.63
2023-04-01T19:57:25.664Z,2.80
2023-04-01T20:00:04.312Z,2.43
2023-04-01T20:03:04.147Z,2.67
2023-04-01T20:05:53.066Z,2.70
2023-04-01T20:08:36.069Z,2.37
2023-04-01T20:11:20.262Z,2.13
2023-04-01T20:14:29.215Z,2.50
2023-04-01T20:17:16.296Z,2.90
2023-04-01T20:19:51.125Z,3.03
2023-04-01T20:22:33.963Z,3.00
2023-04-01T20:25:15.764Z,2.97
2023-04-01T20:27:53.004Z,5.20
2023-04-01T20:30:59.928Z,3.73
2023-04-01T20:34:03.725Z,6.10
2023-04-01T20:36:40.619Z,3.10
2023-04-01T20:40:12.331Z,11.27
2023-04-01T20:43:09.838Z,6.70
2023-04-01T20:45:52.011Z,4.43
2023-04-01T20:48:54.972Z,3.53
2023-04-01T20:51:28.102Z,5.90
2023-04-01T20:54:17.369Z,6.07
2023-04-01T20:56:58.370Z,7.87
2023-04-01T21:00:05.716Z,7.17
2023-04-01T21:02:59.872Z,6.17
2023-04-01T21:05:57.910Z,5.90
2023-04-01T21:08:46.135Z,5.60
2023-04-01T21:11:28.450Z,3.80
2023-04-01T21:14:31.011Z,3.20
2023-04-01T21:17:15.462Z,2.77
2023-04-01T21:20:21.129Z,3.10
2023-04-01T21:23:12.212Z,2.50
2023-04-01T21:26:03.378Z,3.07
2023-04-01T21:28:42.648Z,4.67
2023-04-01T21:31:44.285Z,4.20
2023-04-01T21:34:45.140Z,2.20
2023-04-01T21:37:48.963Z,1.80
2023-04-01T21:40:46.868Z,1.90
2023-04-01T21:43:51.049Z,2.73
2023-04-01T21:46:53.426Z,4.17
2023-04-01T21:50:08.899Z,2.70
2023-04-01T21:53:17.351Z,2.27
2023-04-01T21:56:48.030Z,3.07
2023-04-01T22:00:17.386Z,2.43
2023-04-01T22:03:28.581Z,3.27
2023-04-01T22:06:20.954Z,2.47
2023-04-01T22:09:05.293Z,3.10
2023-04-01T22:11:50.463Z,2.57
2023-04-01T22:14:32.623Z,1.60
2023-04-01T22:17:05.409Z,1.60
2023-04-01T22:19:47.591Z,2.63
2023-04-01T22:22:24.338Z,3.03
2023-04-01T22:25:09.505Z,4.73
2023-04-01T22:27:48.446Z,6.47
2023-04-01T22:30:43.369Z,7.87
2023-04-01T22:33:22.738Z,2.87
2023-04-01T22:36:24.724Z,2.77
2023-04-01T22:39:50.735Z,2.10
2023-04-01T22:43:07.345Z,3.47
2023-04-01T22:46:34.770Z,1.93
2023-04-01T22:49:17.469Z,2.33
2023-04-01T22:51:52.636Z,1.77
2023-04-01T22:54:31.530Z,1.60
2023-04-01T22:57:06.500Z,1.80
2023-04-01T22:59:44.268Z,1.43
2023-04-01T23:02:19.367Z,1.40
2023-04-01T23:04:56.298Z,1.67
2023-04-01T23:07:47.759Z,1.50
2023-04-01T23:10:25.886Z,1.63
2023-04-01T23:12:57.648Z,1.30
2023-04-01T23:15:29.779Z,2.10
2023-04-01T23:18:23.012Z,1.63
2023-04-01T23:21:14.540Z,1.83
2023-04-01T23:23:57.684Z,1.70
2023-04-01T23:26:36.370Z,1.80
2023-04-01T23:29:07.082Z,1.60
2023-04-01T23:31:40.787Z,2.30
2023-04-01T23:34:30.044Z,1.50
2023-04-01T23:37:04.930Z,1.50
2023-04-01T23:39:37.567Z,1.37
2023-04-01T23:42:09.736Z,1.63
2023-04-01T23:44:39.339Z,1.67
2023-04-01T23:47:17.970Z,1.80
2023-04-01T23:49:50.453Z,4.27
2023-04-01T23:52:25.390Z,1.70
2023-04-01T23:54:58.589Z,1.53
2023-04-01T23:57:33.482Z,1.60
